createdAt,value
2023-01-31T00:01:49.803Z,4.50
2023-01-31T00:04:16.815Z,5.60
2023-01-31T00:06:51.091Z,4.73
2023-01-31T00:09:18.848Z,5.27
2023-01-31T00:11:46.293Z,4.67
2023-01-31T00:14:21.557Z,4.77
2023-01-31T00:16:49.057Z,4.07
2023-01-31T00:19:16.583Z,4.30
2023-01-31T00:21:45.192Z,4.23
2023-01-31T00:24:16.241Z,4.90
2023-01-31T00:26:43.387Z,4.63
2023-01-31T00:29:10.969Z,4.30
2023-01-31T00:31:38.973Z,3.97
2023-01-31T00:34:07.541Z,4.53
2023-01-31T00:36:35.975Z,5.20
2023-01-31T00:39:06.392Z,4.93
2023-01-31T00:41:36.123Z,4.50
2023-01-31T00:44:04.492Z,4.50
2023-01-31T00:46:32.061Z,5.13
2023-01-31T00:48:59.939Z,4.90
2023-01-31T00:51:27.534Z,4.50
2023-01-31T00:53:55.200Z,4.77
2023-01-31T00:56:24.636Z,4.67
2023-01-31T00:58:52.844Z,5.17
2023-01-31T01:01:29.433Z,5.03
2023-01-31T01:03:58.103Z,5.00
2023-01-31T01:06:25.974Z,5.67
2023-01-31T01:08:53.743Z,5.77
2023-01-31T01:11:25.701Z,5.83
2023-01-31T01:13:53.447Z,5.53
2023-01-31T01:16:24.736Z,5.13
2023-01-31T01:18:55.179Z,5.23
2023-01-31T01:21:26.260Z,5.00
2023-01-31T01:23:56.916Z,5.00
2023-01-31T01:26:31.816Z,5.33
2023-01-31T01:29:01.051Z,5.60
2023-01-31T01:31:32.410Z,5.70
2023-01-31T01:34:03.906Z,5.27
2023-01-31T01:36:35.950Z,5.00
2023-01-31T01:39:11.572Z,5.07
2023-01-31T01:41:40.432Z,5.30
2023-01-31T01:44:44.984Z,6.00
2023-01-31T01:47:42.687Z,5.80
2023-01-31T01:50:11.937Z,4.50
2023-01-31T01:52:54.720Z,5.47
2023-01-31T01:55:37.916Z,5.23
2023-01-31T01:58:11.791Z,5.27
2023-01-31T02:00:39.462Z,6.30
2023-01-31T02:03:08.439Z,5.93
2023-01-31T02:05:45.930Z,6.03
2023-01-31T02:08:17.398Z,6.37
2023-01-31T02:11:06.247Z,6.40
2023-01-31T02:13:34.341Z,6.27
2023-01-31T02:16:01.475Z,6.13
2023-01-31T02:18:28.973Z,6.70
2023-01-31T02:21:28.635Z,7.47
2023-01-31T02:24:42.984Z,6.63
2023-01-31T02:27:30.716Z,7.83
2023-01-31T02:30:42.824Z,7.70
2023-01-31T02:33:39.083Z,7.50
2023-01-31T02:36:29.611Z,7.17
2023-01-31T02:39:29.311Z,7.67
2023-01-31T02:42:07.569Z,8.53
2023-01-31T02:45:00.608Z,9.00
2023-01-31T02:48:02.137Z,7.47
2023-01-31T02:51:05.214Z,7.67
2023-01-31T02:53:43.751Z,8.40
2023-01-31T02:56:24.933Z,9.00
2023-01-31T02:59:22.196Z,9.20
2023-01-31T03:01:59.579Z,9.37
2023-01-31T03:04:32.924Z,9.33
2023-01-31T03:07:26.885Z,9.00
2023-01-31T03:10:25.325Z,9.67
2023-01-31T03:13:28.580Z,9.57
2023-01-31T03:16:44.049Z,8.47
2023-01-31T03:19:38.954Z,9.87
2023-01-31T03:22:18.494Z,9.53
2023-01-31T03:24:48.767Z,8.77
2023-01-31T03:27:16.855Z,9.63
2023-01-31T03:29:44.778Z,8.60
2023-01-31T03:32:24.929Z,10.07
2023-01-31T03:34:53.492Z,8.67
2023-01-31T03:37:25.723Z,9.50
2023-01-31T03:39:58.830Z,9.17
2023-01-31T03:42:38.811Z,10.20
2023-01-31T03:45:38.426Z,10.03
2023-01-31T03:48:14.423Z,8.63
2023-01-31T03:50:59.161Z,10.57
2023-01-31T03:53:35.242Z,10.77
2023-01-31T03:56:14.547Z,9.70
2023-01-31T03:58:51.224Z,10.80
2023-01-31T04:01:21.313Z,9.67
2023-01-31T04:04:16.173Z,9.33
2023-01-31T04:06:43.701Z,11.43
2023-01-31T04:09:11.035Z,10.23
2023-01-31T04:11:46.578Z,10.87
2023-01-31T04:14:14.157Z,10.00
2023-01-31T04:16:41.446Z,10.27
2023-01-31T04:19:09.044Z,10.43
2023-01-31T04:21:38.050Z,11.13
2023-01-31T04:24:05.516Z,11.00
2023-01-31T04:26:33.182Z,10.53
2023-01-31T04:29:00.687Z,11.07
2023-01-31T04:31:28.016Z,11.20
2023-01-31T04:33:56.113Z,11.30
2023-01-31T04:36:23.141Z,9.30
2023-01-31T04:38:50.817Z,11.30
2023-01-31T04:41:18.075Z,11.13
2023-01-31T04:43:45.759Z,9.83
2023-01-31T04:46:12.880Z,12.00
2023-01-31T04:48:44.057Z,9.50
2023-01-31T04:51:11.524Z,10.67
2023-01-31T04:53:38.568Z,11.07
2023-01-31T04:56:06.034Z,11.23
2023-01-31T04:58:33.206Z,10.57
2023-01-31T05:01:00.396Z,10.60
2023-01-31T05:03:27.503Z,11.07
2023-01-31T05:05:54.504Z,11.00
2023-01-31T05:08:21.638Z,11.20
2023-01-31T05:10:48.988Z,10.40
2023-01-31T05:13:16.104Z,10.33
2023-01-31T05:15:43.575Z,10.23
2023-01-31T05:18:10.713Z,11.27
2023-01-31T05:20:41.084Z,11.07
2023-01-31T05:23:08.736Z,11.90
2023-01-31T05:25:37.539Z,10.03
2023-01-31T05:28:05.039Z,10.23
2023-01-31T05:30:32.600Z,10.13
2023-01-31T05:33:00.184Z,11.50
2023-01-31T05:35:27.762Z,9.83
2023-01-31T05:37:55.756Z,10.03
2023-01-31T05:40:23.443Z,10.23
2023-01-31T05:43:02.308Z,9.60
2023-01-31T05:45:30.057Z,10.90
2023-01-31T05:47:57.776Z,10.53
2023-01-31T05:50:25.525Z,11.00
2023-01-31T05:52:54.721Z,10.87
2023-01-31T05:55:22.464Z,10.70
2023-01-31T05:57:50.045Z,9.50
2023-01-31T06:00:20.934Z,9.47
2023-01-31T06:02:48.309Z,11.57
2023-01-31T06:05:16.356Z,10.43
2023-01-31T06:07:43.631Z,10.03
2023-01-31T06:10:12.112Z,9.47
2023-01-31T06:12:39.468Z,9.37
2023-01-31T06:15:07.348Z,9.20
2023-01-31T06:17:34.768Z,9.87
2023-01-31T06:20:04.406Z,9.27
2023-01-31T06:22:31.686Z,9.00
2023-01-31T06:24:59.431Z,8.57
2023-01-31T06:27:26.773Z,9.63
2023-01-31T06:29:53.911Z,8.90
2023-01-31T06:32:21.121Z,9.50
2023-01-31T06:34:48.322Z,8.87
2023-01-31T06:37:15.695Z,9.30
2023-01-31T06:39:42.824Z,9.80
2023-01-31T06:42:10.012Z,8.60
2023-01-31T06:44:37.967Z,9.33
2023-01-31T06:47:05.356Z,8.23
2023-01-31T06:49:32.745Z,9.20
2023-01-31T06:51:59.843Z,8.80
2023-01-31T06:54:27.037Z,8.73
2023-01-31T06:56:54.113Z,8.90
2023-01-31T06:59:21.368Z,9.13
2023-01-31T07:01:48.699Z,8.33
2023-01-31T07:04:15.806Z,8.60
2023-01-31T07:06:43.036Z,8.27
2023-01-31T07:09:11.611Z,8.70
2023-01-31T07:11:39.023Z,8.37
2023-01-31T07:14:06.442Z,8.27
2023-01-31T07:16:33.992Z,8.93
2023-01-31T07:19:01.461Z,7.67
2023-01-31T07:21:30.148Z,8.17
2023-01-31T07:23:57.450Z,8.40
2023-01-31T07:26:24.605Z,7.53
2023-01-31T07:28:53.636Z,8.40
2023-01-31T07:31:21.298Z,7.90
2023-01-31T07:33:48.656Z,7.63
2023-01-31T07:36:19.782Z,7.20
2023-01-31T07:38:47.307Z,7.03
2023-01-31T07:41:14.784Z,7.13
2023-01-31T07:43:42.025Z,6.33
2023-01-31T07:46:11.598Z,7.33
2023-01-31T07:48:39.379Z,7.77
2023-01-31T07:51:07.138Z,6.03
2023-01-31T07:53:42.098Z,6.30
2023-01-31T07:56:19.365Z,5.87
2023-01-31T07:58:48.668Z,5.97
2023-01-31T08:01:43.326Z,6.67
2023-01-31T08:04:21.615Z,5.90
2023-01-31T08:06:54.781Z,5.07
2023-01-31T08:09:23.188Z,5.27
2023-01-31T08:11:50.524Z,5.87
2023-01-31T08:14:19.917Z,6.23
2023-01-31T08:16:47.289Z,6.07
2023-01-31T08:19:14.326Z,6.17
2023-01-31T08:21:41.667Z,5.47
2023-01-31T08:24:09.550Z,5.00
2023-01-31T08:26:36.971Z,5.00
2023-01-31T08:29:04.726Z,5.47
2023-01-31T08:31:31.812Z,4.70
2023-01-31T08:33:59.885Z,5.17
2023-01-31T08:36:31.998Z,5.57
2023-01-31T08:38:59.853Z,4.90
2023-01-31T08:41:29.583Z,5.00
2023-01-31T08:43:59.100Z,5.03
2023-01-31T08:46:32.612Z,4.87
2023-01-31T08:49:01.652Z,4.67
2023-01-31T08:51:29.354Z,4.83
2023-01-31T08:53:57.241Z,4.87
2023-01-31T08:56:28.087Z,5.10
2023-01-31T08:58:57.519Z,4.47
2023-01-31T09:01:24.818Z,4.90
2023-01-31T09:03:56.751Z,5.10
2023-01-31T09:06:27.289Z,4.70
2023-01-31T09:08:57.655Z,4.27
2023-01-31T09:11:27.027Z,4.67
2023-01-31T09:13:54.075Z,4.90
2023-01-31T09:16:21.661Z,4.47
2023-01-31T09:18:49.317Z,4.00
2023-01-31T09:21:20.250Z,4.33
2023-01-31T09:23:48.694Z,4.40
2023-01-31T09:26:16.871Z,5.03
2023-01-31T09:28:45.331Z,4.60
2023-01-31T09:31:18.786Z,4.93
2023-01-31T09:33:45.949Z,4.73
2023-01-31T09:36:17.435Z,4.80
2023-01-31T09:38:45.581Z,4.50
2023-01-31T09:42:09.051Z,4.20
2023-01-31T09:44:44.231Z,4.37
2023-01-31T09:47:21.615Z,4.23
2023-01-31T09:49:54.810Z,4.77
2023-01-31T09:52:22.988Z,4.17
2023-01-31T09:54:50.201Z,4.70
2023-01-31T09:57:56.066Z,4.53
2023-01-31T10:00:46.700Z,4.47
2023-01-31T10:03:26.840Z,5.00
2023-01-31T10:06:35.852Z,4.50
2023-01-31T10:09:10.667Z,4.70
2023-01-31T10:11:51.828Z,4.57
2023-01-31T10:14:36.880Z,5.33
2023-01-31T10:17:18.038Z,5.33
2023-01-31T10:20:25.440Z,4.10
2023-01-31T10:23:17.953Z,4.53
2023-01-31T10:26:06.946Z,5.53
2023-01-31T10:28:40.273Z,4.70
2023-01-31T10:31:49.105Z,4.53
2023-01-31T10:34:32.978Z,6.30
2023-01-31T10:37:10.226Z,4.93
2023-01-31T10:40:12.640Z,5.13
2023-01-31T10:42:42.572Z,5.20
2023-01-31T10:45:09.459Z,5.03
2023-01-31T10:47:42.030Z,4.37
2023-01-31T10:50:19.317Z,5.23
2023-01-31T10:53:20.156Z,5.20
2023-01-31T10:56:05.031Z,5.57
2023-01-31T10:58:32.653Z,5.47
2023-01-31T11:01:00.057Z,5.00
2023-01-31T11:03:27.472Z,4.30
2023-01-31T11:05:58.048Z,5.87
2023-01-31T11:08:36.414Z,5.03
2023-01-31T11:11:13.798Z,5.47
2023-01-31T11:13:41.276Z,5.13
2023-01-31T11:16:12.216Z,5.13
2023-01-31T11:18:50.102Z,5.83
2023-01-31T11:21:31.705Z,5.93
2023-01-31T11:24:17.149Z,5.80
2023-01-31T11:27:07.033Z,6.53
2023-01-31T11:29:43.589Z,5.67
2023-01-31T11:32:23.717Z,5.93
2023-01-31T11:35:05.816Z,5.73
2023-01-31T11:37:34.959Z,6.10
2023-01-31T11:40:30.580Z,5.80
2023-01-31T11:43:31.057Z,5.90
2023-01-31T11:46:01.878Z,7.23
2023-01-31T11:48:45.608Z,5.63
2023-01-31T11:51:30.973Z,6.33
2023-01-31T11:53:58.348Z,6.43
2023-01-31T11:56:30.524Z,6.17
2023-01-31T11:59:04.596Z,6.37
2023-01-31T12:01:34.737Z,6.30
2023-01-31T12:04:06.213Z,6.03
2023-01-31T12:06:39.924Z,6.60
2023-01-31T12:09:24.976Z,6.73
2023-01-31T12:12:05.855Z,6.03
2023-01-31T12:14:42.432Z,5.70
2023-01-31T12:17:16.324Z,6.10
2023-01-31T12:20:27.677Z,6.50
2023-01-31T12:23:34.430Z,6.10
2023-01-31T12:26:22.389Z,7.23
2023-01-31T12:29:19.461Z,6.37
2023-01-31T12:32:07.599Z,6.43
2023-01-31T12:35:30.303Z,6.10
2023-01-31T12:38:25.081Z,6.63
2023-01-31T12:41:41.463Z,7.63
2023-01-31T12:44:43.997Z,6.30
2023-01-31T12:47:46.067Z,7.00
2023-01-31T12:50:24.942Z,5.83
2023-01-31T12:53:06.853Z,7.10
2023-01-31T12:55:41.965Z,6.27
2023-01-31T12:58:43.623Z,6.97
2023-01-31T13:01:22.996Z,6.07
2023-01-31T13:04:04.919Z,6.20
2023-01-31T13:06:55.884Z,7.10
2023-01-31T13:09:33.532Z,7.63
2023-01-31T13:12:12.279Z,6.47
2023-01-31T13:15:34.299Z,7.03
2023-01-31T13:18:05.730Z,6.27
2023-01-31T13:20:41.721Z,6.63
2023-01-31T13:23:37.101Z,6.53
2023-01-31T13:26:38.229Z,6.73
2023-01-31T13:29:18.767Z,7.73
2023-01-31T13:32:11.254Z,7.23
2023-01-31T13:35:18.035Z,7.47
2023-01-31T13:37:49.191Z,6.97
2023-01-31T13:40:21.808Z,6.40
2023-01-31T13:42:50.398Z,6.90
2023-01-31T13:45:48.608Z,7.53
2023-01-31T13:48:48.950Z,7.77
2023-01-31T13:51:46.482Z,6.80
2023-01-31T13:54:43.571Z,7.27
2023-01-31T13:57:35.037Z,8.03
2023-01-31T14:00:27.067Z,7.50
2023-01-31T14:03:20.031Z,7.50
2023-01-31T14:05:56.927Z,7.53
2023-01-31T14:08:59.096Z,9.47
2023-01-31T14:11:29.129Z,7.83
2023-01-31T14:14:37.513Z,8.13
2023-01-31T14:17:29.316Z,8.13
2023-01-31T14:19:56.810Z,8.47
2023-01-31T14:22:34.948Z,8.43
2023-01-31T14:25:11.152Z,7.90
2023-01-31T14:27:46.750Z,8.33
2023-01-31T14:30:36.658Z,9.73
2023-01-31T14:33:12.869Z,9.23
2023-01-31T14:36:33.273Z,8.77
2023-01-31T14:39:29.631Z,9.77
2023-01-31T14:42:39.364Z,8.77
2023-01-31T14:45:21.172Z,8.70
2023-01-31T14:48:03.369Z,9.73
2023-01-31T14:51:23.750Z,10.17
2023-01-31T14:54:12.000Z,9.93
2023-01-31T14:56:48.076Z,9.93
2023-01-31T15:00:15.815Z,10.67
2023-01-31T15:03:17.323Z,10.03
2023-01-31T15:05:53.332Z,11.13
2023-01-31T15:08:20.566Z,10.60
2023-01-31T15:11:04.790Z,11.83
2023-01-31T15:13:41.542Z,11.17
2023-01-31T15:16:34.999Z,10.63
2023-01-31T15:19:04.949Z,11.37
2023-01-31T15:21:42.911Z,11.43
2023-01-31T15:24:51.464Z,10.33
2023-01-31T15:27:29.341Z,10.23
2023-01-31T15:30:02.478Z,11.13
2023-01-31T15:32:50.141Z,9.67
2023-01-31T15:35:31.784Z,10.23
2023-01-31T15:38:23.236Z,9.90
2023-01-31T15:41:37.817Z,8.53
2023-01-31T15:44:18.584Z,9.27
2023-01-31T15:46:49.848Z,8.40
2023-01-31T15:49:39.170Z,8.03
2023-01-31T15:52:25.515Z,7.63
2023-01-31T15:54:57.881Z,7.87
2023-01-31T15:57:41.606Z,7.43
2023-01-31T16:00:19.908Z,7.20
2023-01-31T16:02:47.998Z,6.83
2023-01-31T16:05:22.338Z,6.90
2023-01-31T16:07:49.984Z,6.63
2023-01-31T16:10:18.911Z,6.90
2023-01-31T16:12:50.739Z,6.87
2023-01-31T16:15:24.058Z,7.90
2023-01-31T16:17:53.154Z,6.80
2023-01-31T16:20:40.017Z,6.60
2023-01-31T16:23:27.006Z,6.17
2023-01-31T16:26:09.141Z,6.53
2023-01-31T16:28:47.751Z,5.20
2023-01-31T16:31:21.572Z,5.87
2023-01-31T16:34:01.568Z,4.77
2023-01-31T16:36:53.025Z,5.07
2023-01-31T16:39:47.452Z,4.93
2023-01-31T16:42:22.273Z,5.40
2023-01-31T16:44:51.121Z,4.77
2023-01-31T16:47:50.937Z,4.93
2023-01-31T16:50:17.947Z,4.50
2023-01-31T16:52:52.759Z,4.17
2023-01-31T16:55:24.898Z,3.57
2023-01-31T16:57:52.061Z,3.60
2023-01-31T17:00:25.143Z,3.47
2023-01-31T17:02:57.957Z,4.57
2023-01-31T17:05:47.250Z,4.10
2023-01-31T17:08:20.418Z,4.57
2023-01-31T17:10:48.759Z,4.47
2023-01-31T17:13:26.412Z,4.43
2023-01-31T17:15:53.451Z,3.40
2023-01-31T17:18:20.577Z,3.83
2023-01-31T17:20:50.743Z,5.00
2023-01-31T17:23:19.072Z,4.70
2023-01-31T17:25:48.570Z,4.70
2023-01-31T17:28:15.577Z,3.87
2023-01-31T17:30:44.949Z,4.13
2023-01-31T17:33:14.097Z,3.80
2023-01-31T17:35:46.740Z,3.97
2023-01-31T17:38:13.847Z,4.27
2023-01-31T17:40:42.818Z,4.07
2023-01-31T17:43:21.234Z,4.00
2023-01-31T17:45:48.351Z,4.47
2023-01-31T17:48:25.749Z,5.17
2023-01-31T17:50:53.712Z,4.83
2023-01-31T17:53:21.110Z,4.60
2023-01-31T17:55:48.398Z,4.13
2023-01-31T17:58:19.614Z,4.90
2023-01-31T18:00:46.941Z,4.17
2023-01-31T18:03:24.824Z,4.37
2023-01-31T18:05:52.483Z,4.83
2023-01-31T18:08:20.292Z,4.10
2023-01-31T18:10:47.534Z,4.70
2023-01-31T18:13:14.832Z,4.17
2023-01-31T18:15:42.125Z,4.60
2023-01-31T18:18:09.512Z,4.70
2023-01-31T18:20:38.900Z,4.50
2023-01-31T18:23:09.270Z,4.10
2023-01-31T18:25:41.000Z,3.90
2023-01-31T18:28:08.188Z,4.43
2023-01-31T18:30:35.336Z,4.27
2023-01-31T18:33:02.406Z,4.20
2023-01-31T18:35:29.532Z,4.73
2023-01-31T18:37:56.834Z,4.33
2023-01-31T18:40:24.541Z,4.07
2023-01-31T18:42:51.728Z,4.57
2023-01-31T18:45:19.304Z,4.07
2023-01-31T18:47:47.122Z,4.00
2023-01-31T18:50:14.470Z,3.33
2023-01-31T18:52:43.864Z,4.20
2023-01-31T18:55:11.318Z,3.83
2023-01-31T18:57:38.695Z,3.77
2023-01-31T19:00:06.604Z,4.50
2023-01-31T19:02:34.259Z,3.87
2023-01-31T19:05:02.293Z,3.77
2023-01-31T19:07:32.128Z,4.07
2023-01-31T19:10:00.299Z,4.13
2023-01-31T19:12:27.483Z,4.10
2023-01-31T19:14:56.521Z,4.67
2023-01-31T19:17:23.906Z,4.50
2023-01-31T19:19:53.855Z,4.77
2023-01-31T19:22:20.964Z,4.00
2023-01-31T19:24:48.397Z,4.17
2023-01-31T19:27:15.643Z,4.40
2023-01-31T19:29:42.784Z,5.73
2023-01-31T19:32:09.938Z,4.47
2023-01-31T19:34:37.425Z,4.97
2023-01-31T19:37:04.675Z,5.23
2023-01-31T19:39:32.085Z,4.57
2023-01-31T19:41:59.575Z,4.73
2023-01-31T19:44:27.024Z,5.00
2023-01-31T19:46:54.389Z,4.30
2023-01-31T19:49:24.396Z,5.00
2023-01-31T19:51:51.857Z,5.03
2023-01-31T19:54:19.825Z,5.10
2023-01-31T19:56:47.458Z,4.80
2023-01-31T19:59:14.563Z,4.90
2023-01-31T20:01:42.076Z,5.07
2023-01-31T20:04:09.291Z,5.43
2023-01-31T20:06:36.688Z,4.80
2023-01-31T20:09:08.171Z,4.90
2023-01-31T20:11:36.816Z,4.83
2023-01-31T20:14:04.650Z,5.50
2023-01-31T20:16:31.991Z,5.33
2023-01-31T20:19:02.182Z,5.73
2023-01-31T20:21:29.242Z,5.93
2023-01-31T20:23:56.400Z,6.20
2023-01-31T20:26:24.389Z,6.50
2023-01-31T20:28:52.144Z,6.50
2023-01-31T20:31:19.544Z,6.73
2023-01-31T20:33:47.173Z,7.17
2023-01-31T20:36:14.549Z,7.63
2023-01-31T20:38:43.339Z,7.70
2023-01-31T20:41:10.708Z,7.63
2023-01-31T20:43:38.124Z,8.43
2023-01-31T20:46:11.584Z,8.00
2023-01-31T20:48:40.488Z,7.30
2023-01-31T20:51:08.133Z,7.70
2023-01-31T20:53:35.841Z,8.33
2023-01-31T20:56:12.236Z,7.73
2023-01-31T20:58:42.116Z,7.33
2023-01-31T21:01:11.368Z,8.03
2023-01-31T21:03:38.637Z,7.87
2023-01-31T21:06:06.718Z,8.47
2023-01-31T21:08:35.718Z,9.07
2023-01-31T21:11:10.300Z,9.50
2023-01-31T21:13:38.279Z,9.07
2023-01-31T21:16:08.237Z,8.37
2023-01-31T21:18:40.286Z,9.03
2023-01-31T21:21:11.798Z,9.83
2023-01-31T21:23:40.769Z,8.67
2023-01-31T21:26:11.035Z,8.40
2023-01-31T21:28:40.090Z,9.30
2023-01-31T21:31:12.819Z,9.37
2023-01-31T21:33:41.185Z,8.77
2023-01-31T21:36:10.505Z,8.83
2023-01-31T21:38:38.619Z,8.00
2023-01-31T21:41:24.828Z,9.17
2023-01-31T21:43:52.077Z,7.97
2023-01-31T21:46:20.128Z,7.60
2023-01-31T21:48:47.807Z,8.37
2023-01-31T21:51:17.786Z,7.13
2023-01-31T21:53:45.910Z,9.00
2023-01-31T21:56:20.485Z,8.20
2023-01-31T21:58:48.071Z,6.47
2023-01-31T22:01:18.173Z,7.07
2023-01-31T22:03:48.744Z,6.70
2023-01-31T22:06:19.993Z,7.20
2023-01-31T22:08:52.741Z,7.90
2023-01-31T22:11:20.494Z,7.37
2023-01-31T22:13:51.384Z,6.53
2023-01-31T22:16:22.329Z,7.40
2023-01-31T22:18:49.786Z,7.67
2023-01-31T22:21:20.930Z,7.43
2023-01-31T22:23:51.765Z,7.40
2023-01-31T22:26:24.699Z,8.77
2023-01-31T22:28:54.114Z,8.33
2023-01-31T22:31:21.975Z,8.30
2023-01-31T22:33:49.395Z,8.30
2023-01-31T22:36:17.566Z,8.77
2023-01-31T22:38:46.847Z,9.43
2023-01-31T22:41:18.279Z,8.53
2023-01-31T22:43:49.446Z,9.13
2023-01-31T22:46:27.186Z,9.87
2023-01-31T22:48:55.390Z,9.87
2023-01-31T22:51:26.408Z,9.67
2023-01-31T22:53:56.484Z,10.73
2023-01-31T22:56:30.552Z,10.80
2023-01-31T22:59:01.117Z,10.00
2023-01-31T23:01:32.707Z,10.40
2023-01-31T23:04:02.335Z,10.53
2023-01-31T23:06:29.902Z,9.87
2023-01-31T23:08:57.946Z,9.50
2023-01-31T23:11:26.302Z,9.80
2023-01-31T23:13:54.067Z,8.13
2023-01-31T23:16:43.467Z,8.80
2023-01-31T23:19:11.928Z,8.20
2023-01-31T23:21:42.857Z,7.00
2023-01-31T23:24:12.516Z,7.33
2023-01-31T23:26:40.204Z,6.93
2023-01-31T23:29:07.600Z,6.80
2023-01-31T23:31:34.993Z,6.43
2023-01-31T23:34:02.324Z,6.30
2023-01-31T23:36:29.370Z,6.07
2023-01-31T23:38:56.388Z,5.50
2023-01-31T23:41:23.652Z,4.80
2023-01-31T23:43:50.797Z,6.27
2023-01-31T23:46:18.041Z,5.83
2023-01-31T23:48:45.065Z,5.90
2023-01-31T23:51:12.080Z,4.63
2023-01-31T23:53:39.125Z,4.87
2023-01-31T23:56:06.875Z,4.70
2023-01-31T23:58:34.098Z,4.97
